createdAt,value
2019-05-11T00:00:54.542Z,9.60
2019-05-11T00:04:16.925Z,9.60
2019-05-11T00:07:39.598Z,9.60
2019-05-11T00:11:02.647Z,9.50
2019-05-11T00:14:25.142Z,9.40
2019-05-11T00:17:47.521Z,9.30
2019-05-11T00:21:09.905Z,9.30
2019-05-11T00:24:32.514Z,9.40
2019-05-11T00:27:54.643Z,9.30
2019-05-11T00:31:16.798Z,9.30
2019-05-11T00:34:39.426Z,9.20
2019-05-11T00:38:01.727Z,9.10
2019-05-11T00:41:23.868Z,9.10
2019-05-11T00:44:47.295Z,9.20
2019-05-11T00:48:09.975Z,9.20
2019-05-11T00:51:32.479Z,9.20
2019-05-11T00:54:54.952Z,9.20
2019-05-11T00:58:17.265Z,9.20
2019-05-11T01:01:39.668Z,9.20
2019-05-11T01:05:01.757Z,9.20
2019-05-11T01:08:24.046Z,9.30
2019-05-11T01:11:46.638Z,9.40
2019-05-11T01:15:09.496Z,9.50
2019-05-11T01:18:31.503Z,9.60
2019-05-11T01:21:53.875Z,9.70
2019-05-11T01:25:16.294Z,9.70
2019-05-11T01:28:38.575Z,9.70
2019-05-11T01:32:01.218Z,9.70
2019-05-11T01:35:23.608Z,9.60
2019-05-11T01:38:46.012Z,9.60
2019-05-11T01:42:08.298Z,9.60
2019-05-11T01:45:30.385Z,9.60
2019-05-11T01:48:52.751Z,9.40
2019-05-11T01:52:15.105Z,9.30
2019-05-11T01:55:37.346Z,9.20
2019-05-11T01:58:59.958Z,9.20
2019-05-11T02:02:22.518Z,9.10
2019-05-11T02:05:44.786Z,9.10
2019-05-11T02:09:07.546Z,9.20
2019-05-11T02:12:29.766Z,9.20
2019-05-11T02:15:52.235Z,9.10
2019-05-11T02:19:14.503Z,9.00
2019-05-11T02:22:36.837Z,9.00
2019-05-11T02:25:59.826Z,8.90
2019-05-11T02:29:22.218Z,8.90
2019-05-11T02:32:44.824Z,8.80
2019-05-11T02:36:07.417Z,8.70
2019-05-11T02:39:29.655Z,8.70
2019-05-11T02:42:52.043Z,8.60
2019-05-11T02:46:14.663Z,8.50
2019-05-11T02:49:37.114Z,8.50
2019-05-11T02:53:00.263Z,8.40
2019-05-11T02:56:22.414Z,8.40
2019-05-11T02:59:44.743Z,8.30
2019-05-11T03:03:07.346Z,8.30
2019-05-11T03:06:29.829Z,8.30
2019-05-11T03:09:52.200Z,8.30
2019-05-11T03:13:14.523Z,8.30
2019-05-11T03:16:36.954Z,8.30
2019-05-11T03:19:59.437Z,8.30
2019-05-11T03:23:21.826Z,8.30
2019-05-11T03:26:44.372Z,8.30
2019-05-11T03:30:07.346Z,8.30
2019-05-11T03:33:30.062Z,8.30
2019-05-11T03:36:52.851Z,8.30
2019-05-11T03:40:15.965Z,8.40
2019-05-11T03:43:38.797Z,8.40
2019-05-11T03:47:01.604Z,8.50
2019-05-11T03:50:24.175Z,8.80
2019-05-11T03:53:46.958Z,9.40
2019-05-11T03:57:09.670Z,9.80
2019-05-11T04:00:32.169Z,9.90
2019-05-11T04:03:54.735Z,9.60
2019-05-11T04:07:17.085Z,9.50
2019-05-11T04:10:39.805Z,9.40
2019-05-11T04:14:02.217Z,9.20
2019-05-11T04:17:24.730Z,9.10
2019-05-11T04:20:47.056Z,9.00
2019-05-11T04:24:09.451Z,9.00
2019-05-11T04:27:32.134Z,8.90
2019-05-11T04:30:54.630Z,9.00
2019-05-11T04:34:17.531Z,9.00
2019-05-11T04:37:39.890Z,9.10
2019-05-11T04:41:02.353Z,9.10
2019-05-11T04:44:24.969Z,9.20
2019-05-11T04:47:47.447Z,9.10
2019-05-11T04:51:09.978Z,9.10
2019-05-11T04:54:31.959Z,9.10
2019-05-11T04:57:54.337Z,9.00
2019-05-11T05:01:16.771Z,9.10
2019-05-11T05:04:39.237Z,9.20
2019-05-11T05:08:09.530Z,9.30
2019-05-11T05:11:30.714Z,9.40
2019-05-11T05:14:50.109Z,9.50
2019-05-11T05:18:12.788Z,9.70
2019-05-11T05:21:35.337Z,9.90
2019-05-11T05:24:57.499Z,10.10
2019-05-11T05:28:20.219Z,10.50
2019-05-11T05:31:43.137Z,11.40
2019-05-11T05:35:06.406Z,12.70
2019-05-11T05:38:29.294Z,12.90
2019-05-11T05:41:56.927Z,12.50
2019-05-11T05:45:16.425Z,12.40
2019-05-11T05:48:39.046Z,12.30
2019-05-11T05:52:01.853Z,12.00
2019-05-11T05:55:24.787Z,11.80
2019-05-11T05:58:47.292Z,11.80
2019-05-11T06:02:10.275Z,11.80
2019-05-11T06:05:32.751Z,11.80
2019-05-11T06:08:55.157Z,11.60
2019-05-11T06:12:20.598Z,11.70
2019-05-11T06:15:43.543Z,11.70
2019-05-11T06:19:05.940Z,11.70
2019-05-11T06:22:28.731Z,11.70
2019-05-11T06:25:51.430Z,11.80
2019-05-11T06:29:14.032Z,12.30
2019-05-11T06:32:36.412Z,12.90
2019-05-11T06:35:58.832Z,14.20
2019-05-11T06:39:21.468Z,15.40
2019-05-11T06:42:43.573Z,15.60
2019-05-11T06:46:05.943Z,16.20
2019-05-11T06:49:28.023Z,16.40
2019-05-11T06:52:50.412Z,16.80
2019-05-11T06:56:12.459Z,16.90
2019-05-11T06:59:34.855Z,16.30
2019-05-11T07:02:57.614Z,16.20
2019-05-11T07:06:20.200Z,16.50
2019-05-11T07:09:42.369Z,16.30
2019-05-11T07:13:05.024Z,15.90
2019-05-11T07:16:27.502Z,16.40
2019-05-11T07:19:49.746Z,16.50
2019-05-11T07:23:12.416Z,16.50
2019-05-11T07:26:34.923Z,15.90
2019-05-11T07:29:57.551Z,16.60
2019-05-11T07:33:20.315Z,16.30
2019-05-11T07:36:42.665Z,16.20
2019-05-11T07:40:08.105Z,16.70
2019-05-11T07:43:30.130Z,17.10
2019-05-11T07:46:52.575Z,17.20
2019-05-11T07:50:17.936Z,16.90
2019-05-11T07:53:39.801Z,17.10
2019-05-11T07:57:02.302Z,16.80
2019-05-11T08:00:27.859Z,17.00
2019-05-11T08:03:49.186Z,17.40
2019-05-11T08:07:11.415Z,17.20
2019-05-11T08:10:34.290Z,16.80
2019-05-11T08:13:58.457Z,17.10
2019-05-11T08:17:21.287Z,17.40
2019-05-11T08:20:43.887Z,17.70
2019-05-11T08:24:08.940Z,17.10
2019-05-11T08:27:30.752Z,17.20
2019-05-11T08:33:40.375Z,17.40
2019-05-11T08:37:02.984Z,16.90
2019-05-11T08:40:25.736Z,16.60
2019-05-11T08:43:48.296Z,16.80
2019-05-11T08:47:11.054Z,17.40
2019-05-11T08:50:33.466Z,17.30
2019-05-11T08:53:58.226Z,16.70
2019-05-11T08:57:20.039Z,16.10
2019-05-11T09:00:42.574Z,15.50
2019-05-11T09:04:05.138Z,15.60
2019-05-11T09:07:27.903Z,15.60
2019-05-11T09:10:50.282Z,15.70
2019-05-11T09:14:12.757Z,15.60
2019-05-11T09:17:35.301Z,15.80
2019-05-11T09:20:57.829Z,15.70
2019-05-11T09:24:19.954Z,15.70
2019-05-11T09:27:43.510Z,15.80
2019-05-11T09:31:08.327Z,15.50
2019-05-11T09:34:30.086Z,15.60
2019-05-11T09:37:52.667Z,16.10
2019-05-11T09:41:15.102Z,15.90
2019-05-11T09:44:38.121Z,15.90
2019-05-11T09:48:00.641Z,15.80
2019-05-11T09:51:22.739Z,15.60
2019-05-11T09:54:45.373Z,15.70
2019-05-11T09:58:08.504Z,15.70
2019-05-11T10:01:31.056Z,16.00
2019-05-11T10:04:53.753Z,15.90
2019-05-11T10:08:18.237Z,15.80
2019-05-11T10:11:40.175Z,15.60
2019-05-11T10:15:02.233Z,15.80
2019-05-11T10:18:24.566Z,15.70
2019-05-11T10:21:48.707Z,16.00
2019-05-11T10:25:11.577Z,15.80
2019-05-11T10:28:33.883Z,15.80
2019-05-11T10:31:58.758Z,15.60
2019-05-11T10:35:20.718Z,15.60
2019-05-11T10:38:43.080Z,15.50
2019-05-11T10:42:05.660Z,15.60
2019-05-11T10:45:28.604Z,15.90
2019-05-11T10:48:51.090Z,15.90
2019-05-11T10:52:13.688Z,16.00
2019-05-11T10:55:38.640Z,16.40
2019-05-11T10:59:01.337Z,16.30
2019-05-11T11:02:23.838Z,16.40
2019-05-11T11:05:45.950Z,16.30
2019-05-11T11:09:09.598Z,16.10
2019-05-11T11:12:31.644Z,16.40
2019-05-11T11:15:54.517Z,16.60
2019-05-11T11:19:18.417Z,16.80
2019-05-11T11:22:44.039Z,16.90
2019-05-11T11:26:05.147Z,16.80
2019-05-11T11:29:28.764Z,16.60
2019-05-11T11:32:51.352Z,16.20
2019-05-11T11:36:13.854Z,16.00
2019-05-11T11:39:38.658Z,16.00
2019-05-11T11:43:00.517Z,15.90
2019-05-11T11:46:22.950Z,15.90
2019-05-11T11:49:47.453Z,15.90
2019-05-11T11:53:09.483Z,16.00
2019-05-11T11:56:31.936Z,15.70
2019-05-11T11:59:54.528Z,15.80
2019-05-11T12:03:18.505Z,15.80
2019-05-11T12:06:41.171Z,15.80
2019-05-11T12:10:04.114Z,15.90
2019-05-11T12:13:29.522Z,15.90
2019-05-11T12:17:03.883Z,15.70
2019-05-11T12:20:14.762Z,15.60
2019-05-11T12:23:38.142Z,15.50
2019-05-11T12:27:00.588Z,15.50
2019-05-11T12:30:23.468Z,15.30
2019-05-11T12:33:48.181Z,15.00
2019-05-11T12:37:10.563Z,14.70
2019-05-11T12:40:32.741Z,14.90
2019-05-11T12:43:54.962Z,15.10
2019-05-11T12:47:22.184Z,15.10
2019-05-11T12:50:41.483Z,15.10
2019-05-11T12:54:04.199Z,15.10
2019-05-11T12:57:28.200Z,14.70
2019-05-11T13:00:50.703Z,14.60
2019-05-11T13:04:13.331Z,14.70
2019-05-11T13:07:36.051Z,14.60
2019-05-11T13:10:58.563Z,14.70
2019-05-11T13:14:21.443Z,14.70
2019-05-11T13:17:43.939Z,14.70
2019-05-11T13:21:07.747Z,14.60
2019-05-11T13:24:30.605Z,14.60
2019-05-11T13:27:52.963Z,14.80
2019-05-11T13:31:15.251Z,14.80
2019-05-11T13:34:38.713Z,14.70
2019-05-11T13:38:01.338Z,14.80
2019-05-11T13:41:23.381Z,14.90
2019-05-11T13:44:47.715Z,14.80
2019-05-11T13:48:10.298Z,14.60
2019-05-11T13:51:32.903Z,14.50
2019-05-11T13:54:55.559Z,14.40
2019-05-11T13:58:19.855Z,14.20
2019-05-11T14:01:41.677Z,14.00
2019-05-11T14:05:04.223Z,13.60
2019-05-11T14:08:27.759Z,13.30
2019-05-11T14:11:50.315Z,13.30
2019-05-11T14:15:12.717Z,13.20
2019-05-11T14:18:35.231Z,13.20
2019-05-11T14:21:58.143Z,13.20
2019-05-11T14:25:20.756Z,13.20
2019-05-11T14:28:43.138Z,13.30
2019-05-11T14:32:05.647Z,13.40
2019-05-11T14:35:28.331Z,13.40
2019-05-11T14:38:50.938Z,13.20
2019-05-11T14:42:13.444Z,13.10
2019-05-11T14:45:38.051Z,13.00
2019-05-11T14:49:00.395Z,13.00
2019-05-11T14:52:22.896Z,13.00
2019-05-11T14:55:45.206Z,13.10
2019-05-11T14:59:09.041Z,13.00
2019-05-11T15:02:49.280Z,12.80
2019-05-11T15:06:11.261Z,12.90
2019-05-11T15:09:33.949Z,13.00
2019-05-11T15:12:56.298Z,13.00
2019-05-11T15:16:18.975Z,12.90
2019-05-11T15:19:41.836Z,13.00
2019-05-11T15:23:03.950Z,13.00
2019-05-11T15:26:27.833Z,12.90
2019-05-11T15:29:53.927Z,12.90
2019-05-11T15:33:18.379Z,12.90
2019-05-11T15:36:40.206Z,12.90
2019-05-11T15:40:15.504Z,13.00
2019-05-11T15:43:38.802Z,13.00
2019-05-11T15:47:01.300Z,13.10
2019-05-11T15:50:25.362Z,13.10
2019-05-11T15:53:50.294Z,13.10
2019-05-11T15:57:12.458Z,13.00
2019-05-11T16:00:35.186Z,13.00
2019-05-11T16:03:58.295Z,12.90
2019-05-11T16:07:20.668Z,12.80
2019-05-11T16:10:43.099Z,12.70
2019-05-11T16:14:08.278Z,12.60
2019-05-11T16:17:29.797Z,12.50
2019-05-11T16:20:52.197Z,12.40
2019-05-11T16:24:14.619Z,12.30
2019-05-11T16:27:38.162Z,12.20
2019-05-11T16:31:00.900Z,12.20
2019-05-11T16:34:23.297Z,12.10
2019-05-11T16:37:48.391Z,12.20
2019-05-11T16:41:10.026Z,12.10
2019-05-11T16:44:32.692Z,12.10
2019-05-11T16:47:55.215Z,12.10
2019-05-11T16:51:17.740Z,12.10
2019-05-11T16:54:40.683Z,12.10
2019-05-11T16:58:03.170Z,12.10
2019-05-11T17:01:25.794Z,12.10
2019-05-11T17:04:48.315Z,12.20
2019-05-11T17:08:10.794Z,12.20
2019-05-11T17:11:33.246Z,12.30
2019-05-11T17:14:59.107Z,12.30
2019-05-11T17:18:21.938Z,12.40
2019-05-11T17:21:44.870Z,12.40
2019-05-11T17:25:08.827Z,12.40
2019-05-11T17:28:31.428Z,12.40
2019-05-11T17:31:54.074Z,12.40
2019-05-11T17:35:17.694Z,12.50
2019-05-11T17:38:40.523Z,12.50
2019-05-11T17:42:03.446Z,12.60
2019-05-11T17:45:25.647Z,12.60
2019-05-11T17:48:48.258Z,12.60
2019-05-11T17:52:10.596Z,12.70
2019-05-11T17:55:32.937Z,12.70
2019-05-11T17:58:55.503Z,12.60
2019-05-11T18:02:18.223Z,12.60
2019-05-11T18:05:40.941Z,12.60
2019-05-11T18:09:08.406Z,12.60
2019-05-11T18:12:30.542Z,12.50
2019-05-11T18:15:53.271Z,12.50
2019-05-11T18:19:15.763Z,12.60
2019-05-11T18:22:39.064Z,12.70
2019-05-11T18:26:01.431Z,12.70
2019-05-11T18:29:24.124Z,12.70
2019-05-11T18:32:49.100Z,12.70
2019-05-11T18:36:10.542Z,12.70
2019-05-11T18:39:33.149Z,12.70
2019-05-11T18:42:57.807Z,12.70
2019-05-11T18:46:19.349Z,12.60
2019-05-11T18:49:41.479Z,12.60
2019-05-11T18:53:03.776Z,12.60
2019-05-11T18:56:28.451Z,12.50
2019-05-11T18:59:50.044Z,12.50
2019-05-11T19:03:12.179Z,12.40
2019-05-11T19:06:34.252Z,12.30
2019-05-11T19:09:57.710Z,12.30
2019-05-11T19:13:20.307Z,12.30
2019-05-11T19:16:43.094Z,12.20
2019-05-11T19:20:05.645Z,12.10
2019-05-11T19:23:28.676Z,11.90
2019-05-11T19:26:51.545Z,11.80
2019-05-11T19:30:14.187Z,11.80
2019-05-11T19:33:38.195Z,11.70
2019-05-11T19:37:00.977Z,11.60
2019-05-11T19:40:24.720Z,11.50
2019-05-11T19:43:48.622Z,11.40
2019-05-11T19:47:10.978Z,11.40
2019-05-11T19:50:33.471Z,11.30
2019-05-11T19:53:57.591Z,11.20
2019-05-11T19:57:20.218Z,11.10
2019-05-11T20:00:42.556Z,11.10
2019-05-11T20:04:05.242Z,11.10
2019-05-11T20:07:28.082Z,11.10
2019-05-11T20:10:53.653Z,11.20
2019-05-11T20:14:16.230Z,11.20
2019-05-11T20:17:39.290Z,11.20
2019-05-11T20:21:15.413Z,11.20
2019-05-11T20:24:27.497Z,11.20
2019-05-11T20:27:49.516Z,11.20
2019-05-11T20:31:11.998Z,11.20
2019-05-11T20:34:34.699Z,11.20
2019-05-11T20:37:58.165Z,11.20
2019-05-11T20:41:21.052Z,11.20
2019-05-11T20:44:43.522Z,11.10
2019-05-11T20:48:07.921Z,11.10
2019-05-11T20:51:36.591Z,11.10
2019-05-11T20:54:54.246Z,11.00
2019-05-11T20:58:18.886Z,11.10
2019-05-11T21:01:40.732Z,11.00
2019-05-11T21:05:03.742Z,11.00
2019-05-11T21:08:28.319Z,11.00
2019-05-11T21:11:50.350Z,11.00
2019-05-11T21:15:13.128Z,11.00
2019-05-11T21:18:35.198Z,11.00
2019-05-11T21:21:59.017Z,10.90
2019-05-11T21:25:21.679Z,10.90
2019-05-11T21:28:44.359Z,10.90
2019-05-11T21:32:08.038Z,10.80
2019-05-11T21:35:30.778Z,10.80
2019-05-11T21:38:53.278Z,10.80
2019-05-11T21:42:18.031Z,10.70
2019-05-11T21:45:40.765Z,10.70
2019-05-11T21:49:03.081Z,10.70
2019-05-11T21:52:25.593Z,10.70
2019-05-11T21:55:48.196Z,10.70
2019-05-11T21:59:10.721Z,10.70
2019-05-11T22:02:33.275Z,10.70
2019-05-11T22:05:57.723Z,10.70
2019-05-11T22:09:20.762Z,10.70
2019-05-11T22:12:43.137Z,10.70
2019-05-11T22:16:05.671Z,10.70
2019-05-11T22:19:28.114Z,10.60
2019-05-11T22:22:50.465Z,10.60
2019-05-11T22:26:14.596Z,10.60
2019-05-11T22:29:37.858Z,10.60
2019-05-11T22:33:00.720Z,10.60
2019-05-11T22:36:22.998Z,10.60
2019-05-11T22:39:45.428Z,10.50
2019-05-11T22:43:09.313Z,10.50
2019-05-11T22:46:32.030Z,10.50
2019-05-11T22:49:54.066Z,10.50
2019-05-11T22:53:18.753Z,10.50
2019-05-11T22:56:40.814Z,10.50
2019-05-11T23:00:03.000Z,10.50
2019-05-11T23:03:27.704Z,10.40
2019-05-11T23:06:49.830Z,10.40
2019-05-11T23:10:12.306Z,10.40
2019-05-11T23:13:34.518Z,10.40
2019-05-11T23:16:58.638Z,10.40
2019-05-11T23:20:21.214Z,10.40
2019-05-11T23:23:43.519Z,10.40
2019-05-11T23:27:08.001Z,10.40
2019-05-11T23:30:30.685Z,10.40
2019-05-11T23:33:53.470Z,10.40
2019-05-11T23:37:15.898Z,10.40
2019-05-11T23:40:38.825Z,10.40
2019-05-11T23:44:01.062Z,10.40
2019-05-11T23:47:23.295Z,10.30
2019-05-11T23:50:45.957Z,10.30
2019-05-11T23:54:08.588Z,10.30
2019-05-11T23:57:33.265Z,10.30
